createdAt,value
2019-03-15T00:01:38.576Z,100449.06
2019-03-15T00:04:07.136Z,100449.27
2019-03-15T00:06:35.752Z,100451.00
2019-03-15T00:09:07.518Z,100455.93
2019-03-15T00:11:36.059Z,100462.96
2019-03-15T00:14:04.837Z,100467.01
2019-03-15T00:16:33.400Z,100463.02
2019-03-15T00:19:02.051Z,100470.10
2019-03-15T00:21:30.758Z,100479.94
2019-03-15T00:23:59.379Z,100483.81
2019-03-15T00:26:27.952Z,100471.61
2019-03-15T00:28:56.502Z,100482.16
2019-03-15T00:31:25.023Z,100480.91
2019-03-15T00:33:53.633Z,100490.30
2019-03-15T00:36:22.218Z,100486.84
2019-03-15T00:38:51.047Z,100477.92
2019-03-15T00:41:19.664Z,100488.98
2019-03-15T00:43:49.568Z,100496.77
2019-03-15T00:46:18.332Z,100497.23
2019-03-15T00:48:46.881Z,100497.75
2019-03-15T00:51:15.465Z,100499.90
2019-03-15T00:53:44.755Z,100500.80
2019-03-15T00:56:13.290Z,100490.86
2019-03-15T00:58:41.901Z,100494.63
2019-03-15T01:01:10.600Z,100499.23
2019-03-15T01:03:39.373Z,100503.12
2019-03-15T01:06:08.775Z,100502.39
2019-03-15T01:08:37.316Z,100498.06
2019-03-15T01:11:05.926Z,100500.77
2019-03-15T01:13:34.532Z,100492.55
2019-03-15T01:16:03.110Z,100490.96
2019-03-15T01:18:31.578Z,100495.47
2019-03-15T01:21:00.199Z,100495.19
2019-03-15T01:23:28.781Z,100481.88
2019-03-15T01:25:57.355Z,100486.27
2019-03-15T01:28:25.921Z,100488.58
2019-03-15T01:30:55.676Z,100479.31
2019-03-15T01:33:24.299Z,100482.27
2019-03-15T01:35:52.889Z,100486.70
2019-03-15T01:38:23.180Z,100483.58
2019-03-15T01:40:51.608Z,100485.86
2019-03-15T01:43:20.118Z,100492.66
2019-03-15T01:45:49.550Z,100489.67
2019-03-15T01:48:18.153Z,100480.42
2019-03-15T01:50:46.732Z,100478.86
2019-03-15T01:53:15.786Z,100469.60
2019-03-15T01:55:44.311Z,100469.22
2019-03-15T01:58:12.945Z,100473.34
2019-03-15T02:00:41.516Z,100466.23
2019-03-15T02:03:10.102Z,100471.89
2019-03-15T02:05:38.672Z,100461.97
2019-03-15T02:08:07.225Z,100461.27
2019-03-15T02:10:35.955Z,100458.84
2019-03-15T02:13:04.530Z,100447.44
2019-03-15T02:15:33.186Z,100455.29
2019-03-15T02:18:01.756Z,100460.19
2019-03-15T02:20:30.344Z,100448.41
2019-03-15T02:22:58.977Z,100453.75
2019-03-15T02:25:27.734Z,100452.84
2019-03-15T02:27:56.283Z,100449.58
2019-03-15T02:30:24.823Z,100452.07
2019-03-15T02:32:53.462Z,100453.70
2019-03-15T02:35:21.893Z,100445.15
2019-03-15T02:37:50.479Z,100447.36
2019-03-15T02:40:19.005Z,100449.69
2019-03-15T02:42:47.701Z,100447.19
2019-03-15T02:45:16.781Z,100443.40
2019-03-15T02:47:46.298Z,100432.04
2019-03-15T02:50:15.503Z,100429.09
2019-03-15T02:52:44.007Z,100430.84
2019-03-15T02:55:12.591Z,100433.78
2019-03-15T02:57:41.137Z,100432.35
2019-03-15T03:02:32.346Z,100430.77
2019-03-15T03:05:00.893Z,100436.28
2019-03-15T03:07:29.482Z,100429.17
2019-03-15T03:09:58.007Z,100431.14
2019-03-15T03:12:26.626Z,100431.56
2019-03-15T03:14:55.101Z,100430.44
2019-03-15T03:17:23.686Z,100426.72
2019-03-15T03:19:52.278Z,100416.08
2019-03-15T03:22:21.001Z,100415.81
2019-03-15T03:24:50.903Z,100407.64
2019-03-15T03:27:19.708Z,100408.12
2019-03-15T03:29:48.210Z,100409.26
2019-03-15T03:32:17.508Z,100401.67
2019-03-15T03:34:46.157Z,100399.63
2019-03-15T03:37:14.737Z,100399.59
2019-03-15T03:39:43.255Z,100402.72
2019-03-15T03:42:11.967Z,100404.34
2019-03-15T03:44:40.481Z,100412.69
2019-03-15T03:47:09.046Z,100406.34
2019-03-15T03:49:37.575Z,100394.33
2019-03-15T03:52:06.197Z,100397.09
2019-03-15T03:54:34.829Z,100390.83
2019-03-15T03:57:03.837Z,100386.51
2019-03-15T03:59:32.545Z,100382.94
2019-03-15T04:02:01.936Z,100379.86
2019-03-15T04:04:30.669Z,100378.67
2019-03-15T04:06:59.245Z,100371.98
2019-03-15T04:09:27.996Z,100361.16
2019-03-15T04:11:56.556Z,100370.30
2019-03-15T04:14:25.193Z,100365.78
2019-03-15T04:16:53.640Z,100371.61
2019-03-15T04:19:22.206Z,100360.97
2019-03-15T04:21:50.644Z,100359.16
2019-03-15T04:24:19.110Z,100363.82
2019-03-15T04:26:48.652Z,100376.17
2019-03-15T04:29:17.225Z,100377.98
2019-03-15T04:31:45.923Z,100386.51
2019-03-15T04:34:14.486Z,100382.45
2019-03-15T04:36:43.031Z,100381.27
2019-03-15T04:39:13.961Z,100375.00
2019-03-15T04:41:41.951Z,100372.31
2019-03-15T04:44:10.831Z,100367.84
2019-03-15T04:46:39.615Z,100369.33
2019-03-15T04:49:08.041Z,100363.92
2019-03-15T04:51:36.704Z,100359.48
2019-03-15T04:54:05.832Z,100370.81
2019-03-15T04:56:34.564Z,100360.75
2019-03-15T04:59:03.139Z,100350.00
2019-03-15T05:01:31.768Z,100345.70
2019-03-15T05:04:00.287Z,100354.45
2019-03-15T05:06:28.881Z,100357.09
2019-03-15T05:08:57.549Z,100360.60
2019-03-15T05:11:26.068Z,100352.25
2019-03-15T05:13:54.662Z,100344.12
2019-03-15T05:16:23.302Z,100342.80
2019-03-15T05:18:51.862Z,100343.34
2019-03-15T05:21:20.448Z,100336.17
2019-03-15T05:23:49.765Z,100329.78
2019-03-15T05:26:18.348Z,100331.02
2019-03-15T05:28:46.825Z,100321.86
2019-03-15T05:31:15.421Z,100319.74
2019-03-15T05:33:43.930Z,100317.28
2019-03-15T05:36:12.543Z,100316.25
2019-03-15T05:38:41.246Z,100311.05
2019-03-15T05:41:09.856Z,100306.70
2019-03-15T05:43:38.372Z,100307.59
2019-03-15T05:46:06.985Z,100312.91
2019-03-15T05:48:35.541Z,100302.86
2019-03-15T05:51:04.174Z,100292.32
2019-03-15T05:53:32.835Z,100289.11
2019-03-15T05:56:01.385Z,100283.22
2019-03-15T05:58:30.113Z,100280.16
2019-03-15T06:00:58.760Z,100284.13
2019-03-15T06:03:27.406Z,100293.91
2019-03-15T06:05:56.074Z,100294.06
2019-03-15T06:08:27.474Z,100287.31
2019-03-15T06:10:55.362Z,100283.12
2019-03-15T06:13:23.955Z,100281.31
2019-03-15T06:15:52.516Z,100278.56
2019-03-15T06:18:21.313Z,100279.77
2019-03-15T06:20:49.831Z,100282.11
2019-03-15T06:23:18.439Z,100273.12
2019-03-15T06:25:46.896Z,100279.98
2019-03-15T06:28:15.454Z,100278.17
2019-03-15T06:30:44.060Z,100273.08
2019-03-15T06:33:12.785Z,100276.53
2019-03-15T06:35:41.462Z,100279.28
2019-03-15T06:38:10.017Z,100274.19
2019-03-15T06:40:38.552Z,100277.36
2019-03-15T06:43:07.168Z,100279.83
2019-03-15T06:45:35.754Z,100272.23
2019-03-15T06:48:04.247Z,100265.91
2019-03-15T06:50:32.839Z,100264.95
2019-03-15T06:53:01.411Z,100265.22
2019-03-15T06:55:29.997Z,100270.92
2019-03-15T06:57:58.657Z,100273.00
2019-03-15T07:00:27.232Z,100267.75
2019-03-15T07:02:55.830Z,100263.46
2019-03-15T07:05:24.515Z,100254.48
2019-03-15T07:07:53.061Z,100252.02
2019-03-15T07:10:22.084Z,100239.44
2019-03-15T07:12:50.696Z,100244.69
2019-03-15T07:15:19.276Z,100241.30
2019-03-15T07:17:47.837Z,100245.83
2019-03-15T07:20:17.128Z,100236.55
2019-03-15T07:22:45.655Z,100228.73
2019-03-15T07:25:14.378Z,100232.92
2019-03-15T07:27:43.255Z,100221.47
2019-03-15T07:30:15.722Z,100224.48
2019-03-15T07:32:44.366Z,100212.33
2019-03-15T07:35:12.957Z,100200.27
2019-03-15T07:37:45.159Z,100191.84
2019-03-15T07:40:13.386Z,100176.81
2019-03-15T07:42:42.112Z,100181.44
2019-03-15T07:45:14.510Z,100172.87
2019-03-15T07:47:43.201Z,100171.44
2019-03-15T07:50:15.633Z,100165.22
2019-03-15T07:52:44.274Z,100165.36
2019-03-15T07:55:13.063Z,100165.36
2019-03-15T07:57:41.671Z,100150.80
2019-03-15T08:00:14.895Z,100152.39
2019-03-15T08:02:45.237Z,100146.66
2019-03-15T08:05:13.806Z,100150.69
2019-03-15T08:07:45.486Z,100144.36
2019-03-15T08:10:13.413Z,100126.93
2019-03-15T08:12:42.025Z,100134.59
2019-03-15T08:15:14.171Z,100126.40
2019-03-15T08:17:42.772Z,100125.37
2019-03-15T08:20:12.675Z,100127.30
2019-03-15T08:22:41.317Z,100130.56
2019-03-15T08:25:11.281Z,100135.04
2019-03-15T08:27:39.847Z,100123.05
2019-03-15T08:30:14.086Z,100128.20
2019-03-15T08:32:43.858Z,100123.44
2019-03-15T08:35:13.318Z,100109.05
2019-03-15T08:37:41.887Z,100120.16
2019-03-15T08:40:12.054Z,100146.32
2019-03-15T08:42:40.607Z,100146.43
2019-03-15T08:45:22.329Z,100144.06
2019-03-15T08:47:51.021Z,100146.66
2019-03-15T08:50:20.646Z,100145.48
2019-03-15T08:52:49.240Z,100130.52
2019-03-15T08:55:17.849Z,100133.80
2019-03-15T08:57:46.503Z,100110.08
2019-03-15T09:00:17.151Z,100099.23
2019-03-15T09:02:45.855Z,100103.10
2019-03-15T09:05:18.172Z,100120.06
2019-03-15T09:07:46.863Z,100125.63
2019-03-15T09:10:23.329Z,100132.25
2019-03-15T09:12:47.002Z,100133.37
2019-03-15T09:15:15.920Z,100130.12
2019-03-15T09:17:44.525Z,100125.26
2019-03-15T09:20:16.610Z,100130.56
2019-03-15T09:22:45.420Z,100123.19
2019-03-15T09:25:19.958Z,100130.64
2019-03-15T09:27:46.416Z,100127.11
2019-03-15T09:30:23.778Z,100120.41
2019-03-15T09:32:46.646Z,100120.70
2019-03-15T09:35:15.231Z,100118.38
2019-03-15T09:37:46.975Z,100120.77
2019-03-15T09:40:17.386Z,100117.84
2019-03-15T09:42:46.217Z,100112.58
2019-03-15T09:45:16.966Z,100102.63
2019-03-15T09:47:45.766Z,100093.73
2019-03-15T09:50:33.873Z,100102.09
2019-03-15T09:52:45.698Z,100104.97
2019-03-15T09:55:14.711Z,100110.96
2019-03-15T09:57:43.517Z,100119.22
2019-03-15T10:00:16.025Z,100120.29
2019-03-15T10:02:46.498Z,100121.52
2019-03-15T10:05:15.362Z,100116.64
2019-03-15T10:07:44.281Z,100112.28
2019-03-15T10:10:20.435Z,100122.72
2019-03-15T10:12:49.133Z,100123.34
2019-03-15T10:15:18.222Z,100117.45
2019-03-15T10:17:47.154Z,100117.22
2019-03-15T10:20:16.663Z,100118.19
2019-03-15T10:22:45.194Z,100112.48
2019-03-15T10:25:15.909Z,100119.66
2019-03-15T10:27:44.490Z,100122.83
2019-03-15T10:30:15.563Z,100121.70
2019-03-15T10:32:44.150Z,100129.42
2019-03-15T10:35:12.858Z,100126.03
2019-03-15T10:37:41.569Z,100126.70
2019-03-15T10:40:23.797Z,100134.86
2019-03-15T10:42:55.302Z,100127.16
2019-03-15T10:45:22.928Z,100138.08
2019-03-15T10:47:51.464Z,100138.56
2019-03-15T10:50:20.361Z,100140.44
2019-03-15T10:52:49.271Z,100132.92
2019-03-15T10:55:20.619Z,100138.73
2019-03-15T10:57:48.270Z,100133.41
2019-03-15T11:00:20.437Z,100136.13
2019-03-15T11:02:49.225Z,100145.17
2019-03-15T11:05:17.853Z,100138.39
2019-03-15T11:07:46.375Z,100148.47
2019-03-15T11:10:14.900Z,100140.77
2019-03-15T11:12:43.520Z,100147.66
2019-03-15T11:15:13.511Z,100152.32
2019-03-15T11:17:42.059Z,100168.20
2019-03-15T11:20:11.603Z,100163.09
2019-03-15T11:22:40.293Z,100172.73
2019-03-15T11:25:10.256Z,100170.69
2019-03-15T11:27:38.915Z,100169.56
2019-03-15T11:30:13.564Z,100166.84
2019-03-15T11:32:42.039Z,100168.73
2019-03-15T11:35:11.348Z,100170.52
2019-03-15T11:37:39.911Z,100161.77
2019-03-15T11:40:18.930Z,100170.23
2019-03-15T11:42:46.740Z,100163.41
2019-03-15T11:45:15.345Z,100167.13
2019-03-15T11:48:02.069Z,100164.59
2019-03-15T11:50:16.168Z,100158.02
2019-03-15T11:52:44.750Z,100160.55
2019-03-15T11:55:13.373Z,100158.63
2019-03-15T11:57:42.016Z,100158.41
2019-03-15T12:00:16.491Z,100156.48
2019-03-15T12:02:48.135Z,100140.06
2019-03-15T12:05:16.773Z,100140.06
2019-03-15T12:07:45.490Z,100152.09
2019-03-15T12:10:18.060Z,100152.75
2019-03-15T12:12:46.536Z,100149.81
2019-03-15T12:15:17.088Z,100157.31
2019-03-15T12:17:45.666Z,100147.69
2019-03-15T12:20:14.490Z,100152.44
2019-03-15T12:22:43.074Z,100152.78
2019-03-15T12:25:12.562Z,100159.35
2019-03-15T12:27:41.070Z,100164.55
2019-03-15T12:30:18.959Z,100155.83
2019-03-15T12:32:47.576Z,100155.25
2019-03-15T12:35:16.562Z,100164.46
2019-03-15T12:37:45.199Z,100165.70
2019-03-15T12:40:15.126Z,100189.97
2019-03-15T12:42:43.731Z,100177.02
2019-03-15T12:45:13.524Z,100165.42
2019-03-15T12:47:42.179Z,100165.84
2019-03-15T12:50:12.814Z,100159.39
2019-03-15T12:52:47.743Z,100155.63
2019-03-15T12:55:12.874Z,100140.78
2019-03-15T12:57:41.591Z,100141.17
2019-03-15T13:00:17.980Z,100147.25
2019-03-15T13:02:46.513Z,100137.05
2019-03-15T13:05:15.247Z,100129.89
2019-03-15T13:07:43.876Z,100141.92
2019-03-15T13:10:17.835Z,100135.10
2019-03-15T13:12:46.492Z,100147.98
2019-03-15T13:15:16.209Z,100139.97
2019-03-15T13:17:44.789Z,100130.81
2019-03-15T13:20:14.664Z,100135.50
2019-03-15T13:22:43.278Z,100156.02
2019-03-15T13:25:12.640Z,100137.32
2019-03-15T13:27:41.324Z,100139.91
2019-03-15T13:30:14.423Z,100141.41
2019-03-15T13:32:43.061Z,100132.20
2019-03-15T13:35:11.912Z,100125.49
2019-03-15T13:37:42.766Z,100121.27
2019-03-15T13:40:18.563Z,100124.45
2019-03-15T13:42:47.246Z,100135.82
2019-03-15T13:45:16.543Z,100132.61
2019-03-15T13:47:45.131Z,100141.57
2019-03-15T13:50:21.316Z,100130.31
2019-03-15T13:52:49.908Z,100123.72
2019-03-15T13:55:18.524Z,100136.29
2019-03-15T13:57:47.185Z,100130.11
2019-03-15T14:00:17.382Z,100122.47
2019-03-15T14:02:46.015Z,100114.97
2019-03-15T14:05:14.818Z,100117.63
2019-03-15T14:07:43.423Z,100112.53
2019-03-15T14:10:13.892Z,100130.94
2019-03-15T14:12:42.527Z,100135.74
2019-03-15T14:15:18.560Z,100126.47
2019-03-15T14:17:47.204Z,100133.24
2019-03-15T14:20:15.784Z,100140.84
2019-03-15T14:22:44.433Z,100145.05
2019-03-15T14:25:18.543Z,100143.48
2019-03-15T14:27:47.127Z,100132.75
2019-03-15T14:30:15.837Z,100145.80
2019-03-15T14:32:44.487Z,100132.30
2019-03-15T14:35:13.135Z,100134.91
2019-03-15T14:37:41.732Z,100146.86
2019-03-15T14:40:11.755Z,100144.36
2019-03-15T14:42:40.517Z,100161.14
2019-03-15T14:45:11.509Z,100165.13
2019-03-15T14:47:40.083Z,100157.09
2019-03-15T14:50:10.211Z,100166.14
2019-03-15T14:52:38.882Z,100173.08
2019-03-15T14:55:09.826Z,100156.97
2019-03-15T14:57:50.981Z,100161.14
2019-03-15T15:00:16.879Z,100160.47
2019-03-15T15:02:45.525Z,100157.31
2019-03-15T15:05:14.184Z,100170.67
2019-03-15T15:07:42.756Z,100152.97
2019-03-15T15:10:16.267Z,100146.06
2019-03-15T15:12:44.859Z,100152.53
2019-03-15T15:15:14.689Z,100158.77
2019-03-15T15:17:43.433Z,100150.24
2019-03-15T15:20:12.678Z,100153.09
2019-03-15T15:22:41.524Z,100151.61
2019-03-15T15:25:12.785Z,100145.02
2019-03-15T15:27:41.482Z,100146.16
2019-03-15T15:30:12.553Z,100151.52
2019-03-15T15:32:41.209Z,100146.38
2019-03-15T15:35:11.597Z,100147.95
2019-03-15T15:37:40.246Z,100133.77
2019-03-15T15:40:13.227Z,100147.50
2019-03-15T15:42:41.813Z,100161.92
2019-03-15T15:45:11.739Z,100170.79
2019-03-15T15:47:40.408Z,100171.58
2019-03-15T15:50:10.609Z,100174.55
2019-03-15T15:52:39.452Z,100170.69
2019-03-15T15:55:10.236Z,100169.09
2019-03-15T15:57:38.881Z,100163.20
2019-03-15T16:00:16.738Z,100165.90
2019-03-15T16:02:45.355Z,100173.82
2019-03-15T16:05:14.139Z,100153.88
2019-03-15T16:07:42.738Z,100154.99
2019-03-15T16:10:17.712Z,100156.98
2019-03-15T16:12:46.037Z,100152.55
2019-03-15T16:15:16.033Z,100158.09
2019-03-15T16:17:45.710Z,100167.77
2019-03-15T16:20:14.753Z,100158.38
2019-03-15T16:22:43.356Z,100158.38
2019-03-15T16:25:12.517Z,100159.27
2019-03-15T16:27:41.095Z,100141.86
2019-03-15T16:30:17.657Z,100154.27
2019-03-15T16:32:46.285Z,100167.13
2019-03-15T16:35:15.305Z,100174.81
2019-03-15T16:37:43.943Z,100176.20
2019-03-15T16:40:13.990Z,100181.64
2019-03-15T16:42:42.621Z,100194.98
2019-03-15T16:45:22.661Z,100188.77
2019-03-15T16:47:51.367Z,100191.09
2019-03-15T16:50:19.878Z,100190.88
2019-03-15T16:52:48.482Z,100192.31
2019-03-15T16:55:17.325Z,100183.30
2019-03-15T16:57:45.894Z,100186.87
2019-03-15T17:00:16.256Z,100205.55
2019-03-15T17:02:44.864Z,100210.16
2019-03-15T17:05:14.220Z,100223.94
2019-03-15T17:07:43.196Z,100227.75
2019-03-15T17:10:14.752Z,100231.34
2019-03-15T17:12:43.496Z,100245.64
2019-03-15T17:15:20.418Z,100247.31
2019-03-15T17:17:49.015Z,100252.41
2019-03-15T17:20:17.819Z,100248.22
2019-03-15T17:22:46.425Z,100260.33
2019-03-15T17:25:15.029Z,100250.22
2019-03-15T17:27:43.546Z,100276.25
2019-03-15T17:30:15.769Z,100266.90
2019-03-15T17:32:44.399Z,100279.48
2019-03-15T17:35:14.581Z,100282.94
2019-03-15T17:37:43.198Z,100286.41
2019-03-15T17:40:17.429Z,100328.26
2019-03-15T17:42:46.008Z,100318.87
2019-03-15T17:45:14.651Z,100337.30
2019-03-15T17:47:43.436Z,100337.30
2019-03-15T17:50:19.481Z,100353.03
2019-03-15T17:52:48.064Z,100356.09
2019-03-15T17:55:17.743Z,100352.63
2019-03-15T17:57:46.408Z,100366.34
2019-03-15T18:00:25.290Z,100378.03
2019-03-15T18:02:53.888Z,100373.49
2019-03-15T18:05:22.542Z,100388.02
2019-03-15T18:07:51.167Z,100380.53
2019-03-15T18:10:19.842Z,100381.78
2019-03-15T18:12:48.430Z,100386.94
2019-03-15T18:15:17.094Z,100406.69
2019-03-15T18:17:45.686Z,100398.05
2019-03-15T18:20:14.402Z,100414.30
2019-03-15T18:22:42.988Z,100403.03
2019-03-15T18:25:11.883Z,100411.31
2019-03-15T18:27:40.986Z,100401.26
2019-03-15T18:30:14.990Z,100399.30
2019-03-15T18:32:43.633Z,100391.55
2019-03-15T18:35:12.529Z,100406.97
2019-03-15T18:37:41.142Z,100406.73
2019-03-15T18:40:20.488Z,100409.58
2019-03-15T18:42:49.189Z,100424.50
2019-03-15T18:45:18.375Z,100425.91
2019-03-15T18:47:47.110Z,100430.61
2019-03-15T18:50:28.405Z,100428.77
2019-03-15T18:52:57.002Z,100447.66
2019-03-15T18:55:25.613Z,100472.57
2019-03-15T18:57:54.230Z,100465.43
2019-03-15T19:00:24.136Z,100465.00
2019-03-15T19:02:52.797Z,100461.23
2019-03-15T19:05:21.420Z,100466.14
2019-03-15T19:07:50.146Z,100469.08
2019-03-15T19:10:18.753Z,100474.53
2019-03-15T19:12:47.372Z,100484.64
2019-03-15T19:15:18.989Z,100493.06
2019-03-15T19:17:47.572Z,100480.22
2019-03-15T19:20:16.904Z,100481.81
2019-03-15T19:22:45.614Z,100479.31
2019-03-15T19:25:15.433Z,100496.36
2019-03-15T19:27:44.337Z,100498.28
2019-03-15T19:30:15.028Z,100498.24
2019-03-15T19:32:43.623Z,100495.08
2019-03-15T19:35:12.418Z,100503.71
2019-03-15T19:37:41.076Z,100506.44
2019-03-15T19:40:12.193Z,100506.44
2019-03-15T19:42:40.798Z,100520.95
2019-03-15T19:45:11.825Z,100532.27
2019-03-15T19:47:40.488Z,100538.53
2019-03-15T19:50:20.201Z,100542.84
2019-03-15T19:52:48.965Z,100544.44
2019-03-15T19:55:17.778Z,100536.77
2019-03-15T19:57:46.546Z,100550.84
2019-03-15T20:00:21.242Z,100557.53
2019-03-15T20:02:49.900Z,100565.23
2019-03-15T20:05:18.513Z,100583.41
2019-03-15T20:07:47.330Z,100595.97
2019-03-15T20:10:17.314Z,100606.20
2019-03-15T20:12:46.091Z,100599.66
2019-03-15T20:15:16.817Z,100608.63
2019-03-15T20:17:45.454Z,100609.98
2019-03-15T20:20:15.381Z,100592.03
2019-03-15T20:22:44.035Z,100597.59
2019-03-15T20:25:16.003Z,100602.67
2019-03-15T20:27:44.588Z,100600.64
2019-03-15T20:30:21.526Z,100602.36
2019-03-15T20:32:46.598Z,100609.33
2019-03-15T20:35:15.272Z,100609.06
2019-03-15T20:37:43.881Z,100617.86
2019-03-15T20:40:14.434Z,100618.67
2019-03-15T20:42:43.057Z,100623.16
2019-03-15T20:45:20.261Z,100620.04
2019-03-15T20:47:48.912Z,100622.23
2019-03-15T20:50:17.537Z,100623.92
2019-03-15T20:52:46.106Z,100627.58
2019-03-15T20:55:14.705Z,100619.34
2019-03-15T20:57:43.413Z,100618.88
2019-03-15T21:00:16.585Z,100623.73
2019-03-15T21:02:45.198Z,100627.00
2019-03-15T21:05:14.185Z,100621.82
2019-03-15T21:07:43.790Z,100630.77
2019-03-15T21:10:14.627Z,100630.88
2019-03-15T21:12:43.261Z,100633.28
2019-03-15T21:15:13.292Z,100643.45
2019-03-15T21:17:42.941Z,100637.88
2019-03-15T21:20:14.407Z,100643.05
2019-03-15T21:22:43.050Z,100637.52
2019-03-15T21:25:11.766Z,100629.31
2019-03-15T21:27:52.837Z,100623.88
2019-03-15T21:30:22.092Z,100629.84
2019-03-15T21:32:50.736Z,100631.51
2019-03-15T21:35:19.326Z,100634.19
2019-03-15T21:37:47.868Z,100648.06
2019-03-15T21:40:20.726Z,100641.03
2019-03-15T21:42:49.381Z,100663.30
2019-03-15T21:45:18.012Z,100653.46
2019-03-15T21:47:46.611Z,100664.16
2019-03-15T21:50:22.170Z,100669.31
2019-03-15T21:52:50.781Z,100671.50
2019-03-15T21:55:19.410Z,100675.69
2019-03-15T21:57:48.002Z,100682.18
2019-03-15T22:00:20.113Z,100675.31
2019-03-15T22:02:48.731Z,100688.70
2019-03-15T22:05:17.304Z,100678.67
2019-03-15T22:07:45.890Z,100695.72
2019-03-15T22:10:15.067Z,100692.23
2019-03-15T22:12:43.741Z,100686.81
2019-03-15T22:15:13.329Z,100698.50
2019-03-15T22:17:42.726Z,100686.09
2019-03-15T22:20:16.213Z,100680.14
2019-03-15T22:22:44.829Z,100695.81
2019-03-15T22:25:13.434Z,100703.66
2019-03-15T22:27:42.001Z,100695.36
2019-03-15T22:30:16.247Z,100689.75
2019-03-15T22:32:44.899Z,100695.51
2019-03-15T22:35:13.475Z,100707.58
2019-03-15T22:37:42.092Z,100705.95
2019-03-15T22:40:12.660Z,100708.45
2019-03-15T22:42:41.292Z,100724.45
2019-03-15T22:45:11.295Z,100716.30
2019-03-15T22:47:39.887Z,100705.05
2019-03-15T22:50:10.912Z,100702.47
2019-03-15T22:52:39.481Z,100711.81
2019-03-15T22:55:10.024Z,100718.20
2019-03-15T22:57:39.042Z,100725.34
2019-03-15T23:00:18.349Z,100736.25
2019-03-15T23:02:46.961Z,100747.59
2019-03-15T23:05:15.507Z,100754.80
2019-03-15T23:07:44.091Z,100756.38
2019-03-15T23:10:12.674Z,100748.30
2019-03-15T23:12:41.262Z,100751.87
2019-03-15T23:15:11.090Z,100750.31
2019-03-15T23:17:39.656Z,100745.04
2019-03-15T23:20:13.728Z,100759.89
2019-03-15T23:22:42.309Z,100764.64
2019-03-15T23:25:11.414Z,100765.75
2019-03-15T23:27:39.962Z,100760.72
2019-03-15T23:30:13.383Z,100762.41
2019-03-15T23:32:41.926Z,100759.75
2019-03-15T23:35:11.527Z,100763.17
2019-03-15T23:37:40.197Z,100763.17
2019-03-15T23:40:16.341Z,100764.20
2019-03-15T23:42:44.974Z,100771.63
2019-03-15T23:45:13.577Z,100774.09
2019-03-15T23:47:42.131Z,100770.62
2019-03-15T23:50:13.741Z,100765.48
2019-03-15T23:52:42.375Z,100761.63
2019-03-15T23:55:12.052Z,100768.44
2019-03-15T23:57:40.735Z,100769.75
